sensor_id;sensor_type;location;lat;lon;timestamp;P1;durP1;ratioP1;P2;durP2;ratioP2
7426;SDS011;3755;59.316;18.092;2023-04-25T00:00:23;5.83;;;3.40;;
7426;SDS011;3755;59.316;18.092;2023-04-25T00:02:50;5.60;;;2.87;;
7426;SDS011;3755;59.316;18.092;2023-04-25T00:05:19;3.97;;;2.70;;
7426;SDS011;3755;59.316;18.092;2023-04-25T00:07:48;4.33;;;3.20;;
7426;SDS011;3755;59.316;18.092;2023-04-25T00:10:15;5.90;;;3.27;;
7426;SDS011;3755;59.316;18.092;2023-04-25T00:12:42;3.60;;;2.50;;
7426;SDS011;3755;59.316;18.092;2023-04-25T00:15:10;7.80;;;3.03;;
7426;SDS011;3755;59.316;18.092;2023-04-25T00:17:38;4.90;;;2.93;;
7426;SDS011;3755;59.316;18.092;2023-04-25T00:20:05;4.23;;;2.60;;
7426;SDS011;3755;59.316;18.092;2023-04-25T00:22:36;4.87;;;2.80;;
7426;SDS011;3755;59.316;18.092;2023-04-25T00:25:03;6.40;;;3.20;;
7426;SDS011;3755;59.316;18.092;2023-04-25T00:27:31;5.67;;;3.30;;
7426;SDS011;3755;59.316;18.092;2023-04-25T00:29:58;3.90;;;3.07;;
7426;SDS011;3755;59.316;18.092;2023-04-25T00:32:26;6.03;;;3.00;;
7426;SDS011;3755;59.316;18.092;2023-04-25T00:34:53;7.20;;;3.47;;
7426;SDS011;3755;59.316;18.092;2023-04-25T00:37:22;4.13;;;2.20;;
7426;SDS011;3755;59.316;18.092;2023-04-25T00:39:51;3.60;;;2.50;;
7426;SDS011;3755;59.316;18.092;2023-04-25T00:42:21;3.87;;;2.40;;
7426;SDS011;3755;59.316;18.092;2023-04-25T00:44:48;3.13;;;2.40;;
7426;SDS011;3755;59.316;18.092;2023-04-25T00:47:16;4.87;;;2.83;;
7426;SDS011;3755;59.316;18.092;2023-04-25T00:49:44;3.00;;;1.73;;
7426;SDS011;3755;59.316;18.092;2023-04-25T00:52:11;5.00;;;3.20;;
7426;SDS011;3755;59.316;18.092;2023-04-25T00:54:39;4.47;;;3.07;;
7426;SDS011;3755;59.316;18.092;2023-04-25T00:57:07;4.57;;;2.70;;
7426;SDS011;3755;59.316;18.092;2023-04-25T00:59:36;5.13;;;2.60;;
7426;SDS011;3755;59.316;18.092;2023-04-25T01:02:04;4.30;;;3.00;;
7426;SDS011;3755;59.316;18.092;2023-04-25T01:04:32;4.03;;;2.50;;
7426;SDS011;3755;59.316;18.092;2023-04-25T01:06:59;2.63;;;2.23;;
7426;SDS011;3755;59.316;18.092;2023-04-25T01:09:28;3.50;;;2.37;;
7426;SDS011;3755;59.316;18.092;2023-04-25T01:11:57;4.37;;;2.37;;
7426;SDS011;3755;59.316;18.092;2023-04-25T01:14:26;5.60;;;2.03;;
7426;SDS011;3755;59.316;18.092;2023-04-25T01:16:54;3.47;;;1.80;;
7426;SDS011;3755;59.316;18.092;2023-04-25T01:19:22;5.13;;;2.37;;
7426;SDS011;3755;59.316;18.092;2023-04-25T01:21:51;3.67;;;2.47;;
7426;SDS011;3755;59.316;18.092;2023-04-25T01:24:19;4.60;;;2.50;;
7426;SDS011;3755;59.316;18.092;2023-04-25T01:26:46;3.53;;;2.33;;
7426;SDS011;3755;59.316;18.092;2023-04-25T01:29:16;4.67;;;2.70;;
7426;SDS011;3755;59.316;18.092;2023-04-25T01:31:43;2.33;;;1.50;;
7426;SDS011;3755;59.316;18.092;2023-04-25T01:34:11;2.63;;;2.37;;
7426;SDS011;3755;59.316;18.092;2023-04-25T01:36:38;3.50;;;2.20;;
7426;SDS011;3755;59.316;18.092;2023-04-25T01:39:07;3.37;;;1.77;;
7426;SDS011;3755;59.316;18.092;2023-04-25T01:41:35;2.83;;;1.90;;
7426;SDS011;3755;59.316;18.092;2023-04-25T01:44:02;2.63;;;2.10;;
7426;SDS011;3755;59.316;18.092;2023-04-25T01:46:30;5.23;;;2.57;;
7426;SDS011;3755;59.316;18.092;2023-04-25T01:48:58;4.87;;;2.70;;
7426;SDS011;3755;59.316;18.092;2023-04-25T01:51:25;3.93;;;1.90;;
7426;SDS011;3755;59.316;18.092;2023-04-25T01:53:52;3.23;;;2.03;;
7426;SDS011;3755;59.316;18.092;2023-04-25T01:56:23;3.57;;;2.00;;
7426;SDS011;3755;59.316;18.092;2023-04-25T01:58:50;3.33;;;1.50;;
7426;SDS011;3755;59.316;18.092;2023-04-25T02:01:17;2.80;;;1.23;;
7426;SDS011;3755;59.316;18.092;2023-04-25T02:03:45;4.77;;;1.83;;
7426;SDS011;3755;59.316;18.092;2023-04-25T02:06:12;1.57;;;1.00;;
7426;SDS011;3755;59.316;18.092;2023-04-25T02:08:39;2.50;;;1.20;;
7426;SDS011;3755;59.316;18.092;2023-04-25T02:11:06;4.50;;;1.73;;
7426;SDS011;3755;59.316;18.092;2023-04-25T02:13:35;3.27;;;1.50;;
7426;SDS011;3755;59.316;18.092;2023-04-25T02:16:02;2.07;;;1.50;;
7426;SDS011;3755;59.316;18.092;2023-04-25T02:18:29;2.00;;;1.47;;
7426;SDS011;3755;59.316;18.092;2023-04-25T02:20:58;2.43;;;1.47;;
7426;SDS011;3755;59.316;18.092;2023-04-25T02:23:26;3.33;;;1.33;;
7426;SDS011;3755;59.316;18.092;2023-04-25T02:25:55;2.23;;;1.17;;
7426;SDS011;3755;59.316;18.092;2023-04-25T02:28:23;2.30;;;1.33;;
7426;SDS011;3755;59.316;18.092;2023-04-25T02:30:52;1.50;;;1.30;;
7426;SDS011;3755;59.316;18.092;2023-04-25T02:33:19;2.23;;;1.33;;
7426;SDS011;3755;59.316;18.092;2023-04-25T02:35:47;2.50;;;2.00;;
7426;SDS011;3755;59.316;18.092;2023-04-25T02:38:14;2.43;;;1.60;;
7426;SDS011;3755;59.316;18.092;2023-04-25T02:40:41;1.80;;;1.40;;
7426;SDS011;3755;59.316;18.092;2023-04-25T02:43:09;3.33;;;1.60;;
7426;SDS011;3755;59.316;18.092;2023-04-25T02:45:36;1.20;;;1.10;;
7426;SDS011;3755;59.316;18.092;2023-04-25T02:48:05;1.47;;;1.20;;
7426;SDS011;3755;59.316;18.092;2023-04-25T02:50:32;2.80;;;1.67;;
7426;SDS011;3755;59.316;18.092;2023-04-25T02:52:59;4.03;;;1.27;;
7426;SDS011;3755;59.316;18.092;2023-04-25T02:55:27;3.07;;;1.33;;
7426;SDS011;3755;59.316;18.092;2023-04-25T02:57:54;2.40;;;1.27;;
7426;SDS011;3755;59.316;18.092;2023-04-25T03:00:21;1.73;;;1.17;;
7426;SDS011;3755;59.316;18.092;2023-04-25T03:02:48;2.93;;;1.20;;
7426;SDS011;3755;59.316;18.092;2023-04-25T03:05:17;3.03;;;1.63;;
7426;SDS011;3755;59.316;18.092;2023-04-25T03:07:44;1.20;;;1.07;;
7426;SDS011;3755;59.316;18.092;2023-04-25T03:10:12;3.63;;;1.67;;
7426;SDS011;3755;59.316;18.092;2023-04-25T03:12:39;2.43;;;1.43;;
7426;SDS011;3755;59.316;18.092;2023-04-25T03:15:07;1.70;;;0.83;;
7426;SDS011;3755;59.316;18.092;2023-04-25T03:17:34;1.63;;;1.47;;
7426;SDS011;3755;59.316;18.092;2023-04-25T03:20:01;2.40;;;1.00;;
7426;SDS011;3755;59.316;18.092;2023-04-25T03:22:31;2.47;;;1.20;;
7426;SDS011;3755;59.316;18.092;2023-04-25T03:24:59;1.43;;;1.10;;
7426;SDS011;3755;59.316;18.092;2023-04-25T03:27:26;1.10;;;1.03;;
7426;SDS011;3755;59.316;18.092;2023-04-25T03:29:53;2.40;;;1.60;;
7426;SDS011;3755;59.316;18.092;2023-04-25T03:32:20;2.90;;;1.43;;
7426;SDS011;3755;59.316;18.092;2023-04-25T03:34:47;1.67;;;1.43;;
7426;SDS011;3755;59.316;18.092;2023-04-25T03:37:15;1.43;;;1.20;;
7426;SDS011;3755;59.316;18.092;2023-04-25T03:39:43;2.40;;;1.17;;
7426;SDS011;3755;59.316;18.092;2023-04-25T03:42:11;1.13;;;1.00;;
7426;SDS011;3755;59.316;18.092;2023-04-25T03:44:38;1.47;;;1.20;;
7426;SDS011;3755;59.316;18.092;2023-04-25T03:47:05;1.63;;;1.40;;
7426;SDS011;3755;59.316;18.092;2023-04-25T03:49:32;1.40;;;1.23;;
7426;SDS011;3755;59.316;18.092;2023-04-25T03:52:00;3.27;;;1.27;;
7426;SDS011;3755;59.316;18.092;2023-04-25T03:54:27;1.40;;;1.30;;
7426;SDS011;3755;59.316;18.092;2023-04-25T03:56:56;1.30;;;1.20;;
7426;SDS011;3755;59.316;18.092;2023-04-25T03:59:23;1.67;;;1.50;;
7426;SDS011;3755;59.316;18.092;2023-04-25T04:01:51;4.57;;;1.50;;
7426;SDS011;3755;59.316;18.092;2023-04-25T04:04:18;1.53;;;1.13;;
7426;SDS011;3755;59.316;18.092;2023-04-25T04:06:45;1.87;;;1.30;;
7426;SDS011;3755;59.316;18.092;2023-04-25T04:09:13;2.10;;;1.83;;
7426;SDS011;3755;59.316;18.092;2023-04-25T04:11:40;2.33;;;1.60;;
7426;SDS011;3755;59.316;18.092;2023-04-25T04:14:09;3.83;;;1.50;;
7426;SDS011;3755;59.316;18.092;2023-04-25T04:16:36;4.47;;;1.50;;
7426;SDS011;3755;59.316;18.092;2023-04-25T04:19:04;3.57;;;1.83;;
7426;SDS011;3755;59.316;18.092;2023-04-25T04:21:32;2.67;;;2.00;;
7426;SDS011;3755;59.316;18.092;2023-04-25T04:23:59;3.70;;;2.10;;
7426;SDS011;3755;59.316;18.092;2023-04-25T04:26:27;4.50;;;2.20;;
7426;SDS011;3755;59.316;18.092;2023-04-25T04:28:54;3.53;;;1.83;;
7426;SDS011;3755;59.316;18.092;2023-04-25T04:31:22;2.03;;;1.73;;
7426;SDS011;3755;59.316;18.092;2023-04-25T04:33:50;2.73;;;2.13;;
7426;SDS011;3755;59.316;18.092;2023-04-25T04:36:17;2.23;;;1.77;;
7426;SDS011;3755;59.316;18.092;2023-04-25T04:38:47;4.43;;;2.33;;
7426;SDS011;3755;59.316;18.092;2023-04-25T04:41:14;3.90;;;2.53;;
7426;SDS011;3755;59.316;18.092;2023-04-25T04:43:41;2.80;;;2.20;;
7426;SDS011;3755;59.316;18.092;2023-04-25T04:46:08;4.00;;;2.23;;
7426;SDS011;3755;59.316;18.092;2023-04-25T04:48:39;3.20;;;2.20;;
7426;SDS011;3755;59.316;18.092;2023-04-25T04:51:06;3.07;;;2.43;;
7426;SDS011;3755;59.316;18.092;2023-04-25T04:53:33;7.03;;;3.03;;
7426;SDS011;3755;59.316;18.092;2023-04-25T04:56:01;6.23;;;2.83;;
7426;SDS011;3755;59.316;18.092;2023-04-25T04:58:28;3.20;;;2.53;;
7426;SDS011;3755;59.316;18.092;2023-04-25T05:00:56;3.03;;;2.20;;
7426;SDS011;3755;59.316;18.092;2023-04-25T05:03:23;4.93;;;2.90;;
7426;SDS011;3755;59.316;18.092;2023-04-25T05:05:52;6.00;;;3.23;;
7426;SDS011;3755;59.316;18.092;2023-04-25T05:08:19;4.67;;;2.97;;
7426;SDS011;3755;59.316;18.092;2023-04-25T05:10:46;3.87;;;2.67;;
7426;SDS011;3755;59.316;18.092;2023-04-25T05:13:13;7.10;;;3.57;;
7426;SDS011;3755;59.316;18.092;2023-04-25T05:15:40;5.67;;;2.87;;
7426;SDS011;3755;59.316;18.092;2023-04-25T05:18:08;8.20;;;4.20;;
7426;SDS011;3755;59.316;18.092;2023-04-25T05:20:35;7.47;;;3.57;;
7426;SDS011;3755;59.316;18.092;2023-04-25T05:23:03;6.20;;;3.23;;
7426;SDS011;3755;59.316;18.092;2023-04-25T05:25:31;8.53;;;3.77;;
7426;SDS011;3755;59.316;18.092;2023-04-25T05:27:58;7.83;;;3.27;;
7426;SDS011;3755;59.316;18.092;2023-04-25T05:30:25;4.70;;;2.77;;
7426;SDS011;3755;59.316;18.092;2023-04-25T05:32:53;3.60;;;2.80;;
7426;SDS011;3755;59.316;18.092;2023-04-25T05:35:20;5.50;;;3.43;;
7426;SDS011;3755;59.316;18.092;2023-04-25T05:37:49;6.70;;;3.37;;
7426;SDS011;3755;59.316;18.092;2023-04-25T05:40:18;7.30;;;3.70;;
7426;SDS011;3755;59.316;18.092;2023-04-25T05:42:45;5.97;;;3.07;;
7426;SDS011;3755;59.316;18.092;2023-04-25T05:45:12;3.53;;;2.70;;
7426;SDS011;3755;59.316;18.092;2023-04-25T05:47:40;5.07;;;3.00;;
7426;SDS011;3755;59.316;18.092;2023-04-25T05:50:07;3.87;;;2.80;;
7426;SDS011;3755;59.316;18.092;2023-04-25T05:52:35;3.00;;;2.10;;
7426;SDS011;3755;59.316;18.092;2023-04-25T05:55:02;4.40;;;2.93;;
7426;SDS011;3755;59.316;18.092;2023-04-25T05:57:32;8.50;;;4.33;;
7426;SDS011;3755;59.316;18.092;2023-04-25T05:59:59;5.27;;;3.50;;
7426;SDS011;3755;59.316;18.092;2023-04-25T06:02:26;8.70;;;3.53;;
7426;SDS011;3755;59.316;18.092;2023-04-25T06:04:54;7.40;;;3.73;;
7426;SDS011;3755;59.316;18.092;2023-04-25T06:07:22;6.13;;;3.10;;
7426;SDS011;3755;59.316;18.092;2023-04-25T06:09:49;7.43;;;3.70;;
7426;SDS011;3755;59.316;18.092;2023-04-25T06:12:16;3.73;;;3.00;;
7426;SDS011;3755;59.316;18.092;2023-04-25T06:14:45;5.40;;;3.20;;
7426;SDS011;3755;59.316;18.092;2023-04-25T06:17:12;6.40;;;2.80;;
7426;SDS011;3755;59.316;18.092;2023-04-25T06:19:40;3.43;;;2.47;;
7426;SDS011;3755;59.316;18.092;2023-04-25T06:22:07;4.03;;;2.67;;
7426;SDS011;3755;59.316;18.092;2023-04-25T06:24:35;4.80;;;2.70;;
7426;SDS011;3755;59.316;18.092;2023-04-25T06:27:02;5.13;;;2.93;;
7426;SDS011;3755;59.316;18.092;2023-04-25T06:29:30;5.30;;;2.40;;
7426;SDS011;3755;59.316;18.092;2023-04-25T06:31:59;3.40;;;2.20;;
7426;SDS011;3755;59.316;18.092;2023-04-25T06:34:26;5.63;;;2.60;;
7426;SDS011;3755;59.316;18.092;2023-04-25T06:36:53;2.83;;;2.20;;
7426;SDS011;3755;59.316;18.092;2023-04-25T06:39:21;3.40;;;2.23;;
7426;SDS011;3755;59.316;18.092;2023-04-25T06:41:48;2.60;;;2.10;;
7426;SDS011;3755;59.316;18.092;2023-04-25T06:44:15;3.57;;;2.50;;
7426;SDS011;3755;59.316;18.092;2023-04-25T06:46:43;4.13;;;2.60;;
7426;SDS011;3755;59.316;18.092;2023-04-25T06:49:11;2.60;;;2.07;;
7426;SDS011;3755;59.316;18.092;2023-04-25T06:51:40;4.77;;;2.43;;
7426;SDS011;3755;59.316;18.092;2023-04-25T06:54:07;3.17;;;2.23;;
7426;SDS011;3755;59.316;18.092;2023-04-25T06:56:35;3.03;;;2.10;;
7426;SDS011;3755;59.316;18.092;2023-04-25T06:59:02;2.53;;;1.70;;
7426;SDS011;3755;59.316;18.092;2023-04-25T07:01:29;3.67;;;2.10;;
7426;SDS011;3755;59.316;18.092;2023-04-25T07:03:57;2.90;;;2.30;;
7426;SDS011;3755;59.316;18.092;2023-04-25T07:06:26;2.60;;;2.07;;
7426;SDS011;3755;59.316;18.092;2023-04-25T07:08:53;3.17;;;2.10;;
7426;SDS011;3755;59.316;18.092;2023-04-25T07:11:21;2.93;;;2.10;;
7426;SDS011;3755;59.316;18.092;2023-04-25T07:13:48;3.30;;;2.10;;
7426;SDS011;3755;59.316;18.092;2023-04-25T07:16:16;3.90;;;2.47;;
7426;SDS011;3755;59.316;18.092;2023-04-25T07:18:43;4.13;;;2.20;;
7426;SDS011;3755;59.316;18.092;2023-04-25T07:21:11;3.10;;;1.80;;
7426;SDS011;3755;59.316;18.092;2023-04-25T07:23:40;3.03;;;2.20;;
7426;SDS011;3755;59.316;18.092;2023-04-25T07:26:07;3.17;;;2.00;;
7426;SDS011;3755;59.316;18.092;2023-04-25T07:28:35;4.43;;;3.00;;
7426;SDS011;3755;59.316;18.092;2023-04-25T07:31:02;3.40;;;2.00;;
7426;SDS011;3755;59.316;18.092;2023-04-25T07:33:30;3.03;;;2.13;;
7426;SDS011;3755;59.316;18.092;2023-04-25T07:35:58;2.43;;;2.03;;
7426;SDS011;3755;59.316;18.092;2023-04-25T07:38:25;3.27;;;2.10;;
7426;SDS011;3755;59.316;18.092;2023-04-25T07:40:54;3.53;;;2.83;;
7426;SDS011;3755;59.316;18.092;2023-04-25T07:43:21;3.47;;;2.50;;
7426;SDS011;3755;59.316;18.092;2023-04-25T07:45:49;3.33;;;2.27;;
7426;SDS011;3755;59.316;18.092;2023-04-25T07:48:16;3.13;;;2.37;;
7426;SDS011;3755;59.316;18.092;2023-04-25T07:50:43;3.53;;;2.53;;
7426;SDS011;3755;59.316;18.092;2023-04-25T07:53:11;4.07;;;2.73;;
7426;SDS011;3755;59.316;18.092;2023-04-25T07:55:38;3.90;;;2.80;;
7426;SDS011;3755;59.316;18.092;2023-04-25T07:58:07;4.13;;;2.47;;
7426;SDS011;3755;59.316;18.092;2023-04-25T08:00:35;3.57;;;2.37;;
7426;SDS011;3755;59.316;18.092;2023-04-25T08:03:03;3.23;;;2.60;;
7426;SDS011;3755;59.316;18.092;2023-04-25T08:05:30;3.47;;;2.80;;
7426;SDS011;3755;59.316;18.092;2023-04-25T08:07:57;3.92;;;2.90;;
7426;SDS011;3755;59.316;18.092;2023-04-25T08:10:25;3.60;;;2.60;;
7426;SDS011;3755;59.316;18.092;2023-04-25T08:12:52;5.07;;;2.83;;
7426;SDS011;3755;59.316;18.092;2023-04-25T08:15:21;4.10;;;2.70;;
7426;SDS011;3755;59.316;18.092;2023-04-25T08:17:49;3.97;;;3.10;;
7426;SDS011;3755;59.316;18.092;2023-04-25T08:20:16;4.50;;;3.05;;
7426;SDS011;3755;59.316;18.092;2023-04-25T08:22:43;4.03;;;3.03;;
7426;SDS011;3755;59.316;18.092;2023-04-25T08:25:11;5.43;;;3.03;;
7426;SDS011;3755;59.316;18.092;2023-04-25T08:27:38;4.73;;;2.63;;
7426;SDS011;3755;59.316;18.092;2023-04-25T08:30:06;8.43;;;3.37;;
7426;SDS011;3755;59.316;18.092;2023-04-25T08:32:36;5.35;;;3.67;;
7426;SDS011;3755;59.316;18.092;2023-04-25T08:35:04;5.17;;;3.33;;
7426;SDS011;3755;59.316;18.092;2023-04-25T08:37:32;4.25;;;3.15;;
7426;SDS011;3755;59.316;18.092;2023-04-25T08:39:59;4.38;;;3.00;;
7426;SDS011;3755;59.316;18.092;2023-04-25T08:42:27;6.53;;;3.85;;
7426;SDS011;3755;59.316;18.092;2023-04-25T08:44:57;4.25;;;3.35;;
7426;SDS011;3755;59.316;18.092;2023-04-25T08:47:28;4.53;;;3.03;;
7426;SDS011;3755;59.316;18.092;2023-04-25T08:50:01;11.07;;;4.95;;
7426;SDS011;3755;59.316;18.092;2023-04-25T08:52:32;9.52;;;5.28;;
7426;SDS011;3755;59.316;18.092;2023-04-25T08:55:04;7.35;;;5.18;;
7426;SDS011;3755;59.316;18.092;2023-04-25T08:57:33;8.60;;;6.25;;
7426;SDS011;3755;59.316;18.092;2023-04-25T09:00:01;12.13;;;7.72;;
7426;SDS011;3755;59.316;18.092;2023-04-25T09:02:30;14.60;;;8.70;;
7426;SDS011;3755;59.316;18.092;2023-04-25T09:04:58;14.90;;;9.95;;
7426;SDS011;3755;59.316;18.092;2023-04-25T09:07:27;13.75;;;9.07;;
7426;SDS011;3755;59.316;18.092;2023-04-25T09:09:54;12.95;;;8.27;;
7426;SDS011;3755;59.316;18.092;2023-04-25T09:12:22;11.13;;;6.83;;
7426;SDS011;3755;59.316;18.092;2023-04-25T09:15:00;11.02;;;8.80;;
7426;SDS011;3755;59.316;18.092;2023-04-25T09:17:30;10.57;;;7.95;;
7426;SDS011;3755;59.316;18.092;2023-04-25T09:20:05;12.50;;;9.38;;
7426;SDS011;3755;59.316;18.092;2023-04-25T09:22:35;10.80;;;7.60;;
7426;SDS011;3755;59.316;18.092;2023-04-25T09:25:04;12.93;;;7.97;;
7426;SDS011;3755;59.316;18.092;2023-04-25T09:27:35;8.88;;;6.60;;
7426;SDS011;3755;59.316;18.092;2023-04-25T09:30:03;10.98;;;7.35;;
7426;SDS011;3755;59.316;18.092;2023-04-25T09:32:31;14.05;;;9.73;;
7426;SDS011;3755;59.316;18.092;2023-04-25T09:34:58;8.07;;;6.18;;
7426;SDS011;3755;59.316;18.092;2023-04-25T09:37:26;12.57;;;7.50;;
7426;SDS011;3755;59.316;18.092;2023-04-25T09:39:57;10.55;;;6.40;;
7426;SDS011;3755;59.316;18.092;2023-04-25T09:42:28;8.88;;;5.57;;
7426;SDS011;3755;59.316;18.092;2023-04-25T09:44:57;8.75;;;6.80;;
7426;SDS011;3755;59.316;18.092;2023-04-25T09:47:27;10.88;;;7.53;;
7426;SDS011;3755;59.316;18.092;2023-04-25T09:49:54;8.27;;;6.45;;
7426;SDS011;3755;59.316;18.092;2023-04-25T09:52:22;6.82;;;5.07;;
7426;SDS011;3755;59.316;18.092;2023-04-25T09:54:51;7.72;;;4.97;;
7426;SDS011;3755;59.316;18.092;2023-04-25T09:57:20;11.98;;;7.82;;
7426;SDS011;3755;59.316;18.092;2023-04-25T09:59:49;15.30;;;7.93;;
7426;SDS011;3755;59.316;18.092;2023-04-25T10:02:17;13.43;;;8.70;;
7426;SDS011;3755;59.316;18.092;2023-04-25T10:04:47;15.73;;;8.10;;
7426;SDS011;3755;59.316;18.092;2023-04-25T10:07:20;9.88;;;6.18;;
7426;SDS011;3755;59.316;18.092;2023-04-25T10:09:51;8.20;;;5.13;;
7426;SDS011;3755;59.316;18.092;2023-04-25T10:12:28;6.70;;;4.97;;
7426;SDS011;3755;59.316;18.092;2023-04-25T10:14:56;7.82;;;5.43;;
7426;SDS011;3755;59.316;18.092;2023-04-25T10:17:25;14.00;;;6.38;;
7426;SDS011;3755;59.316;18.092;2023-04-25T10:19:53;7.03;;;4.88;;
7426;SDS011;3755;59.316;18.092;2023-04-25T10:22:23;8.55;;;5.72;;
7426;SDS011;3755;59.316;18.092;2023-04-25T10:24:59;7.68;;;5.40;;
7426;SDS011;3755;59.316;18.092;2023-04-25T10:27:30;8.18;;;5.80;;
7426;SDS011;3755;59.316;18.092;2023-04-25T10:30:00;10.65;;;7.18;;
7426;SDS011;3755;59.316;18.092;2023-04-25T10:32:30;11.70;;;6.43;;
7426;SDS011;3755;59.316;18.092;2023-04-25T10:35:04;11.27;;;7.55;;
7426;SDS011;3755;59.316;18.092;2023-04-25T10:37:37;11.23;;;6.55;;
7426;SDS011;3755;59.316;18.092;2023-04-25T10:40:08;6.15;;;4.60;;
7426;SDS011;3755;59.316;18.092;2023-04-25T10:42:38;8.05;;;4.90;;
7426;SDS011;3755;59.316;18.092;2023-04-25T10:45:08;8.07;;;5.22;;
7426;SDS011;3755;59.316;18.092;2023-04-25T10:47:43;9.88;;;5.47;;
7426;SDS011;3755;59.316;18.092;2023-04-25T10:50:11;10.80;;;4.40;;
7426;SDS011;3755;59.316;18.092;2023-04-25T10:52:40;12.38;;;4.70;;
7426;SDS011;3755;59.316;18.092;2023-04-25T10:55:10;10.35;;;5.93;;
7426;SDS011;3755;59.316;18.092;2023-04-25T10:57:40;10.55;;;7.05;;
7426;SDS011;3755;59.316;18.092;2023-04-25T11:00:10;27.95;;;8.35;;
7426;SDS011;3755;59.316;18.092;2023-04-25T11:02:46;12.90;;;7.45;;
7426;SDS011;3755;59.316;18.092;2023-04-25T11:05:22;13.77;;;6.45;;
7426;SDS011;3755;59.316;18.092;2023-04-25T11:08:00;10.82;;;6.13;;
7426;SDS011;3755;59.316;18.092;2023-04-25T11:10:29;14.93;;;7.60;;
7426;SDS011;3755;59.316;18.092;2023-04-25T11:12:59;9.88;;;5.82;;
7426;SDS011;3755;59.316;18.092;2023-04-25T11:15:26;9.48;;;6.20;;
7426;SDS011;3755;59.316;18.092;2023-04-25T11:17:54;9.65;;;6.65;;
7426;SDS011;3755;59.316;18.092;2023-04-25T11:20:22;26.03;;;8.20;;
7426;SDS011;3755;59.316;18.092;2023-04-25T11:22:53;14.18;;;7.05;;
7426;SDS011;3755;59.316;18.092;2023-04-25T11:25:25;15.38;;;6.40;;
7426;SDS011;3755;59.316;18.092;2023-04-25T11:27:52;16.77;;;7.75;;
7426;SDS011;3755;59.316;18.092;2023-04-25T11:30:23;41.03;;;8.80;;
7426;SDS011;3755;59.316;18.092;2023-04-25T11:32:51;23.25;;;6.55;;
7426;SDS011;3755;59.316;18.092;2023-04-25T11:35:19;20.67;;;5.90;;
7426;SDS011;3755;59.316;18.092;2023-04-25T11:37:48;14.88;;;6.38;;
7426;SDS011;3755;59.316;18.092;2023-04-25T11:40:16;11.77;;;6.97;;
7426;SDS011;3755;59.316;18.092;2023-04-25T11:42:44;11.23;;;6.10;;
7426;SDS011;3755;59.316;18.092;2023-04-25T11:45:12;18.17;;;7.22;;
7426;SDS011;3755;59.316;18.092;2023-04-25T11:47:42;30.40;;;8.25;;
7426;SDS011;3755;59.316;18.092;2023-04-25T11:50:09;8.10;;;4.70;;
7426;SDS011;3755;59.316;18.092;2023-04-25T11:52:37;17.33;;;5.68;;
7426;SDS011;3755;59.316;18.092;2023-04-25T11:55:06;18.75;;;6.05;;
7426;SDS011;3755;59.316;18.092;2023-04-25T11:57:34;10.63;;;4.45;;
7426;SDS011;3755;59.316;18.092;2023-04-25T12:00:09;14.52;;;4.93;;
7426;SDS011;3755;59.316;18.092;2023-04-25T12:02:43;20.25;;;6.25;;
7426;SDS011;3755;59.316;18.092;2023-04-25T12:05:11;19.65;;;5.93;;
7426;SDS011;3755;59.316;18.092;2023-04-25T12:07:40;11.18;;;4.63;;
7426;SDS011;3755;59.316;18.092;2023-04-25T12:10:08;12.90;;;5.07;;
7426;SDS011;3755;59.316;18.092;2023-04-25T12:12:37;11.13;;;4.90;;
7426;SDS011;3755;59.316;18.092;2023-04-25T12:15:08;25.85;;;6.40;;
7426;SDS011;3755;59.316;18.092;2023-04-25T12:17:36;8.38;;;3.95;;
7426;SDS011;3755;59.316;18.092;2023-04-25T12:20:11;10.85;;;4.20;;
7426;SDS011;3755;59.316;18.092;2023-04-25T12:22:40;20.40;;;6.32;;
7426;SDS011;3755;59.316;18.092;2023-04-25T12:25:10;15.57;;;6.35;;
7426;SDS011;3755;59.316;18.092;2023-04-25T12:27:38;12.45;;;5.47;;
7426;SDS011;3755;59.316;18.092;2023-04-25T12:30:07;8.32;;;4.07;;
7426;SDS011;3755;59.316;18.092;2023-04-25T12:32:37;29.23;;;6.63;;
7426;SDS011;3755;59.316;18.092;2023-04-25T12:35:05;19.75;;;6.55;;
7426;SDS011;3755;59.316;18.092;2023-04-25T12:37:34;6.10;;;4.47;;
7426;SDS011;3755;59.316;18.092;2023-04-25T12:40:01;9.95;;;4.13;;
7426;SDS011;3755;59.316;18.092;2023-04-25T12:42:31;26.95;;;6.20;;
7426;SDS011;3755;59.316;18.092;2023-04-25T12:44:59;27.75;;;6.28;;
7426;SDS011;3755;59.316;18.092;2023-04-25T12:47:26;10.00;;;5.28;;
7426;SDS011;3755;59.316;18.092;2023-04-25T12:49:53;32.20;;;6.25;;
7426;SDS011;3755;59.316;18.092;2023-04-25T12:52:21;24.38;;;6.05;;
7426;SDS011;3755;59.316;18.092;2023-04-25T12:54:50;17.35;;;5.28;;
7426;SDS011;3755;59.316;18.092;2023-04-25T12:57:18;14.20;;;5.03;;
7426;SDS011;3755;59.316;18.092;2023-04-25T12:59:46;15.35;;;4.95;;
7426;SDS011;3755;59.316;18.092;2023-04-25T13:02:13;14.40;;;4.65;;
7426;SDS011;3755;59.316;18.092;2023-04-25T13:04:40;8.57;;;5.43;;
7426;SDS011;3755;59.316;18.092;2023-04-25T13:07:08;22.25;;;5.30;;
7426;SDS011;3755;59.316;18.092;2023-04-25T13:09:35;18.27;;;4.82;;
7426;SDS011;3755;59.316;18.092;2023-04-25T13:12:05;22.77;;;5.95;;
7426;SDS011;3755;59.316;18.092;2023-04-25T13:14:32;14.68;;;4.53;;
7426;SDS011;3755;59.316;18.092;2023-04-25T13:17:00;33.92;;;7.55;;
7426;SDS011;3755;59.316;18.092;2023-04-25T13:19:27;27.48;;;6.63;;
7426;SDS011;3755;59.316;18.092;2023-04-25T13:21:54;14.65;;;4.82;;
7426;SDS011;3755;59.316;18.092;2023-04-25T13:24:22;23.67;;;5.43;;
7426;SDS011;3755;59.316;18.092;2023-04-25T13:26:49;25.40;;;6.55;;
7426;SDS011;3755;59.316;18.092;2023-04-25T13:29:18;22.73;;;6.18;;
7426;SDS011;3755;59.316;18.092;2023-04-25T13:31:45;23.95;;;5.80;;
7426;SDS011;3755;59.316;18.092;2023-04-25T13:34:13;24.50;;;7.10;;
7426;SDS011;3755;59.316;18.092;2023-04-25T13:36:41;12.98;;;5.35;;
7426;SDS011;3755;59.316;18.092;2023-04-25T13:39:08;19.23;;;5.45;;
7426;SDS011;3755;59.316;18.092;2023-04-25T13:41:37;19.85;;;4.95;;
7426;SDS011;3755;59.316;18.092;2023-04-25T13:44:04;51.60;;;7.45;;
7426;SDS011;3755;59.316;18.092;2023-04-25T13:46:33;12.10;;;5.05;;
7426;SDS011;3755;59.316;18.092;2023-04-25T13:49:02;13.48;;;5.72;;
7426;SDS011;3755;59.316;18.092;2023-04-25T13:51:30;23.58;;;6.43;;
7426;SDS011;3755;59.316;18.092;2023-04-25T13:53:57;13.68;;;5.35;;
7426;SDS011;3755;59.316;18.092;2023-04-25T13:56:26;15.52;;;5.13;;
7426;SDS011;3755;59.316;18.092;2023-04-25T13:58:53;22.20;;;5.85;;
7426;SDS011;3755;59.316;18.092;2023-04-25T14:01:21;6.90;;;4.75;;
7426;SDS011;3755;59.316;18.092;2023-04-25T14:03:50;24.73;;;6.15;;
7426;SDS011;3755;59.316;18.092;2023-04-25T14:06:18;18.90;;;5.13;;
7426;SDS011;3755;59.316;18.092;2023-04-25T14:08:48;16.17;;;5.97;;
7426;SDS011;3755;59.316;18.092;2023-04-25T14:11:15;24.35;;;6.32;;
7426;SDS011;3755;59.316;18.092;2023-04-25T14:13:44;12.07;;;5.57;;
7426;SDS011;3755;59.316;18.092;2023-04-25T14:16:12;19.63;;;5.53;;
7426;SDS011;3755;59.316;18.092;2023-04-25T14:18:41;13.13;;;5.10;;
7426;SDS011;3755;59.316;18.092;2023-04-25T14:21:10;27.67;;;6.40;;
7426;SDS011;3755;59.316;18.092;2023-04-25T14:23:38;7.28;;;4.65;;
7426;SDS011;3755;59.316;18.092;2023-04-25T14:26:05;13.50;;;5.50;;
7426;SDS011;3755;59.316;18.092;2023-04-25T14:28:34;8.85;;;5.28;;
7426;SDS011;3755;59.316;18.092;2023-04-25T14:31:02;12.15;;;5.57;;
7426;SDS011;3755;59.316;18.092;2023-04-25T14:33:29;10.48;;;5.10;;
7426;SDS011;3755;59.316;18.092;2023-04-25T14:35:56;13.10;;;6.25;;
7426;SDS011;3755;59.316;18.092;2023-04-25T14:38:25;9.77;;;5.53;;
7426;SDS011;3755;59.316;18.092;2023-04-25T14:40:53;13.23;;;5.60;;
7426;SDS011;3755;59.316;18.092;2023-04-25T14:43:20;10.73;;;4.35;;
7426;SDS011;3755;59.316;18.092;2023-04-25T14:45:48;10.18;;;4.95;;
7426;SDS011;3755;59.316;18.092;2023-04-25T14:48:15;11.27;;;4.40;;
7426;SDS011;3755;59.316;18.092;2023-04-25T14:50:44;20.77;;;4.85;;
7426;SDS011;3755;59.316;18.092;2023-04-25T14:53:12;9.55;;;4.15;;
7426;SDS011;3755;59.316;18.092;2023-04-25T14:55:41;13.45;;;3.92;;
7426;SDS011;3755;59.316;18.092;2023-04-25T14:58:08;9.07;;;4.00;;
7426;SDS011;3755;59.316;18.092;2023-04-25T15:00:36;7.68;;;3.20;;
7426;SDS011;3755;59.316;18.092;2023-04-25T15:03:04;4.90;;;2.92;;